TPE weather

Taiwan Taoyuan International Airport
Taipei, Taoyuan County, Taiwan

Public forecast

Using degrees Celsius for public forecast. Weather courtesy of forecast.io.

Current aviation weather report (METAR) for Taiwan Taoyuan International Airport

Retrieved 2019/12/09 12:30 UTC (10 minutes ago):

RCTP 091230Z 06013KT 9999 FEW020 BKN180 18/14 Q1019 NOSIG RMK A3011

Aviation forecast (TAF) for Taiwan Taoyuan International Airport

Retrieved 2019/12/09 12:00 UTC (40 minutes ago):

TAF RCTP 091100Z 0912/1018 06012KT 9999 FEW015 BKN032 TEMPO 0920/0924 09005KT FEW009 BKN016 BECMG 1000/1002 03005KT BECMG 1006/1008 35013KT TEMPO 1006/1012 34020KT 5000 BR SCT005 BKN014 TEMPO 1012/1018 3200 BR SCT005 BKN012